Time;durP1;ratioP1;P1;durP2;ratioP2;P2;SDS_P1;SDS_P2;PMS_P1;PMS_P2;Temp;Humidity;BMP_temperature;BMP_pressure;BME280_temperature;BME280_humidity;BME280_pressure;Samples;Min_cycle;Max_cycle;Signal;HPM_P1;HPM_P2
2023/07/03 00:00:06;;;;;;;6.22;2.50;;;;;;;;;;2064317;28;20038;-78
2023/07/03 00:01:26;;;;;;;4.90;2.45;;;;;;;;;;2068678;28;20029;-76
2023/07/03 00:02:46;;;;;;;6.07;2.72;;;;;;;;;;2065065;28;20706;-76
2023/07/03 00:04:10;;;;;;;3.00;2.63;;;;;;;;;;2060876;28;20031;-76
2023/07/03 00:05:30;;;;;;;6.88;3.10;;;;;;;;;;2060842;28;20113;-76
2023/07/03 00:06:49;;;;;;;4.03;2.50;;;;;;;;;;2068853;28;20017;-77
2023/07/03 00:08:08;;;;;;;7.43;2.80;;;;;;;;;;2072584;28;20034;-75
2023/07/03 00:09:27;;;;;;;7.65;2.78;;;;;;;;;;2072625;28;20022;-74
2023/07/03 00:10:46;;;;;;;4.25;2.75;;;;;;;;;;2071865;28;20057;-76
2023/07/03 00:12:05;;;;;;;7.78;3.00;;;;;;;;;;2072451;28;20057;-75
2023/07/03 00:13:24;;;;;;;3.90;2.75;;;;;;;;;;2073337;28;20053;-77
2023/07/03 00:14:45;;;;;;;4.00;2.47;;;;;;;;;;2061697;28;20046;-77
2023/07/03 00:16:04;;;;;;;6.60;2.45;;;;;;;;;;2052870;28;20038;-76
2023/07/03 00:17:23;;;;;;;7.15;3.08;;;;;;;;;;2065364;28;20034;-76
2023/07/03 00:18:42;;;;;;;9.02;3.08;;;;;;;;;;2063260;28;20039;-76
2023/07/03 00:20:02;;;;;;;6.43;2.72;;;;;;;;;;2068781;28;20101;-77
2023/07/03 00:21:21;;;;;;;5.47;3.13;;;;;;;;;;2061837;28;20026;-75
2023/07/03 00:22:41;;;;;;;7.75;3.00;;;;;;;;;;2068552;28;20443;-76
2023/07/03 00:24:00;;;;;;;7.35;3.58;;;;;;;;;;2063312;28;20531;-77
2023/07/03 00:25:20;;;;;;;6.80;2.83;;;;;;;;;;2069328;28;20026;-76
2023/07/03 00:26:43;;;;;;;6.28;2.95;;;;;;;;;;2071724;28;20030;-75
2023/07/03 00:28:02;;;;;;;5.55;2.92;;;;;;;;;;2073707;28;20022;-76
2023/07/03 00:29:21;;;;;;;8.88;3.35;;;;;;;;;;2072038;28;20668;-76
2023/07/03 00:30:42;;;;;;;7.82;3.60;;;;;;;;;;2063331;28;20026;-75
2023/07/03 00:32:06;;;;;;;7.00;2.65;;;;;;;;;;2069275;28;20057;-76
2023/07/03 00:33:25;;;;;;;5.18;2.70;;;;;;;;;;2072700;28;20026;-75
2023/07/03 00:34:44;;;;;;;5.43;2.47;;;;;;;;;;2071941;28;20030;-78
2023/07/03 00:36:03;;;;;;;3.70;2.95;;;;;;;;;;2072597;28;20034;-75
2023/07/03 00:37:22;;;;;;;5.70;2.58;;;;;;;;;;2072854;28;20491;-77
2023/07/03 00:38:45;;;;;;;6.85;2.53;;;;;;;;;;2071087;28;20584;-75
2023/07/03 00:40:06;;;;;;;3.47;2.60;;;;;;;;;;2072441;28;20026;-76
2023/07/03 00:41:26;;;;;;;6.15;2.33;;;;;;;;;;2077039;28;20045;-76
2023/07/03 00:42:45;;;;;;;5.13;2.78;;;;;;;;;;2073875;28;20022;-77
2023/07/03 00:44:06;;;;;;;8.40;2.95;;;;;;;;;;2072581;28;20030;-76
2023/07/03 00:45:25;;;;;;;6.32;2.53;;;;;;;;;;2069864;28;20030;-77
2023/07/03 00:46:46;;;;;;;6.65;2.95;;;;;;;;;;2069485;28;20062;-77
2023/07/03 00:48:06;;;;;;;8.38;2.97;;;;;;;;;;2070745;28;20029;-76
2023/07/03 00:49:25;;;;;;;6.07;2.65;;;;;;;;;;2076954;28;20442;-77
2023/07/03 00:50:44;;;;;;;5.72;2.67;;;;;;;;;;2070037;28;20455;-77
2023/07/03 00:52:05;;;;;;;6.38;3.33;;;;;;;;;;2067081;28;20511;-77
2023/07/03 00:53:25;;;;;;;5.15;3.10;;;;;;;;;;2076388;28;20065;-77
2023/07/03 00:54:45;;;;;;;8.05;3.40;;;;;;;;;;2076737;28;20048;-77
2023/07/03 00:56:04;;;;;;;5.47;2.42;;;;;;;;;;2072101;28;20034;-76
2023/07/03 00:57:25;;;;;;;7.32;2.50;;;;;;;;;;2073406;28;20030;-77
2023/07/03 00:58:45;;;;;;;4.30;2.50;;;;;;;;;;2073327;28;20030;-77
2023/07/03 01:00:04;;;;;;;4.57;2.70;;;;;;;;;;2071452;28;20038;-77
2023/07/03 01:01:34;;;;;;;8.23;2.63;;;;;;;;;;2067665;28;20339;-76
2023/07/03 01:03:10;;;;;;;4.40;2.60;;;;;;;;;;2071890;28;20026;-77
2023/07/03 01:04:36;;;;;;;4.40;2.50;;;;;;;;;;2072746;28;20030;-76
2023/07/03 01:05:59;;;;;;;4.05;2.50;;;;;;;;;;2074691;28;20029;-75
2023/07/03 01:07:37;;;;;;;4.57;2.90;;;;;;;;;;2073156;28;20479;-75
2023/07/03 01:08:58;;;;;;;5.75;2.45;;;;;;;;;;2073273;28;20030;-75
2023/07/03 01:10:19;;;;;;;5.40;2.38;;;;;;;;;;2073680;28;20018;-76
2023/07/03 01:11:38;;;;;;;6.13;2.15;;;;;;;;;;2073210;28;20026;-76
2023/07/03 01:13:03;;;;;;;4.78;2.55;;;;;;;;;;2073055;28;20030;-76
2023/07/03 01:14:22;;;;;;;2.17;1.90;;;;;;;;;;2073247;28;21249;-76
2023/07/03 01:15:42;;;;;;;4.60;2.28;;;;;;;;;;2074649;28;20030;-77
2023/07/03 01:17:01;;;;;;;6.03;2.53;;;;;;;;;;2074970;28;20022;-76
2023/07/03 01:18:20;;;;;;;3.88;2.03;;;;;;;;;;2072287;28;20030;-75
2023/07/03 01:19:40;;;;;;;7.13;2.40;;;;;;;;;;2073501;28;20045;-76
2023/07/03 01:21:26;;;;;;;11.45;2.80;;;;;;;;;;2079567;28;20030;-77
2023/07/03 01:22:49;;;;;;;4.68;2.45;;;;;;;;;;2071961;28;20037;-76
2023/07/03 01:24:13;;;;;;;5.03;2.70;;;;;;;;;;2070124;28;20027;-76
2023/07/03 01:25:34;;;;;;;5.63;2.45;;;;;;;;;;2073033;28;20026;-76
2023/07/03 01:26:53;;;;;;;4.32;2.58;;;;;;;;;;2070722;28;20034;-76
2023/07/03 01:28:14;;;;;;;2.72;2.13;;;;;;;;;;2073687;28;20037;-77
2023/07/03 01:29:33;;;;;;;6.13;2.53;;;;;;;;;;2080836;28;20029;-77
2023/07/03 01:30:54;;;;;;;4.50;2.70;;;;;;;;;;2070719;28;20105;-76
2023/07/03 01:32:14;;;;;;;2.95;1.77;;;;;;;;;;2073457;28;20109;-76
2023/07/03 01:33:34;;;;;;;5.00;2.25;;;;;;;;;;2073647;28;20030;-76
2023/07/03 01:34:53;;;;;;;3.53;2.20;;;;;;;;;;2062098;28;20042;-76
2023/07/03 01:36:13;;;;;;;4.15;2.03;;;;;;;;;;2069480;28;20105;-76
2023/07/03 01:37:33;;;;;;;5.15;2.42;;;;;;;;;;2065093;28;20034;-76
2023/07/03 01:38:53;;;;;;;5.35;2.65;;;;;;;;;;2068594;28;20395;-76
2023/07/03 01:40:14;;;;;;;4.95;2.00;;;;;;;;;;2064613;28;20085;-76
2023/07/03 01:41:34;;;;;;;3.47;2.20;;;;;;;;;;2064758;28;20034;-75
2023/07/03 01:42:54;;;;;;;3.47;2.08;;;;;;;;;;2070973;28;20026;-76
2023/07/03 01:44:12;;;;;;;2.35;1.75;;;;;;;;;;2063844;28;20022;-76
2023/07/03 01:45:40;;;;;;;4.55;2.30;;;;;;;;;;2061274;28;20026;-76
2023/07/03 01:47:12;;;;;;;5.05;2.13;;;;;;;;;;2062383;28;20018;-77
2023/07/03 01:48:32;;;;;;;5.32;2.00;;;;;;;;;;2070147;28;20033;-77
2023/07/03 01:49:51;;;;;;;4.13;2.20;;;;;;;;;;2071577;28;20022;-76
2023/07/03 01:51:12;;;;;;;4.05;2.10;;;;;;;;;;2072438;28;20042;-77
2023/07/03 01:52:43;;;;;;;3.67;2.45;;;;;;;;;;2059531;28;20086;-76
2023/07/03 01:54:09;;;;;;;5.50;2.17;;;;;;;;;;2061088;28;20026;-75
2023/07/03 01:55:46;;;;;;;2.40;2.05;;;;;;;;;;2062634;28;20166;-76
2023/07/03 01:57:05;;;;;;;5.50;2.00;;;;;;;;;;2070806;28;20399;-76
2023/07/03 01:58:41;;;;;;;5.80;2.40;;;;;;;;;;2071343;28;20419;-78
2023/07/03 02:00:03;;;;;;;8.65;3.10;;;;;;;;;;2061357;28;20018;-76
2023/07/03 02:01:36;;;;;;;4.03;2.13;;;;;;;;;;2068093;28;20128;-76
2023/07/03 02:02:56;;;;;;;4.25;2.42;;;;;;;;;;2068876;28;20480;-76
2023/07/03 02:04:27;;;;;;;4.60;2.40;;;;;;;;;;2063593;28;20030;-76
2023/07/03 02:05:47;;;;;;;7.32;2.50;;;;;;;;;;2061338;28;20106;-76
2023/07/03 02:07:07;;;;;;;3.75;2.53;;;;;;;;;;2067081;28;20029;-76
2023/07/03 02:08:27;;;;;;;6.93;2.47;;;;;;;;;;2069769;28;20061;-76
2023/07/03 02:09:46;;;;;;;2.90;2.70;;;;;;;;;;2072324;28;20125;-76
2023/07/03 02:11:12;;;;;;;5.32;2.58;;;;;;;;;;2062701;28;20034;-76
2023/07/03 02:12:31;;;;;;;4.10;2.30;;;;;;;;;;2068256;28;20026;-75
2023/07/03 02:13:50;;;;;;;4.25;2.65;;;;;;;;;;2063647;28;20054;-75
2023/07/03 02:15:08;;;;;;;5.30;3.10;;;;;;;;;;2058914;28;20026;-76
2023/07/03 02:16:31;;;;;;;7.55;2.85;;;;;;;;;;2068509;28;20026;-76
2023/07/03 02:17:55;;;;;;;5.68;2.63;;;;;;;;;;2062566;28;20507;-76
2023/07/03 02:19:16;;;;;;;6.10;2.75;;;;;;;;;;2062177;28;20030;-75
2023/07/03 02:20:36;;;;;;;6.75;3.40;;;;;;;;;;2067782;28;20562;-76
2023/07/03 02:21:56;;;;;;;7.45;2.80;;;;;;;;;;2073203;28;20041;-76
2023/07/03 02:23:15;;;;;;;6.32;2.60;;;;;;;;;;2063071;28;20034;-75
2023/07/03 02:24:34;;;;;;;7.97;2.85;;;;;;;;;;2065657;28;20038;-76
2023/07/03 02:25:53;;;;;;;6.10;3.08;;;;;;;;;;2070119;28;20311;-75
2023/07/03 02:27:12;;;;;;;3.58;2.60;;;;;;;;;;2070998;28;20104;-75
2023/07/03 02:28:31;;;;;;;6.75;2.70;;;;;;;;;;2061656;28;20026;-76
2023/07/03 02:29:50;;;;;;;5.95;3.05;;;;;;;;;;2061065;28;20023;-76
2023/07/03 02:31:09;;;;;;;7.10;2.95;;;;;;;;;;2068041;28;20030;-76
2023/07/03 02:32:32;;;;;;;4.60;2.90;;;;;;;;;;2063650;28;20500;-76
2023/07/03 02:33:51;;;;;;;3.20;2.90;;;;;;;;;;2070563;28;20058;-76
2023/07/03 02:35:11;;;;;;;5.10;3.05;;;;;;;;;;2072935;28;20383;-77
2023/07/03 02:36:34;;;;;;;4.18;2.80;;;;;;;;;;2071606;28;20030;-76
2023/07/03 02:37:53;;;;;;;5.20;2.80;;;;;;;;;;2073223;28;20022;-76
2023/07/03 02:39:12;;;;;;;5.80;2.75;;;;;;;;;;2063095;28;20598;-75
2023/07/03 02:40:31;;;;;;;8.45;3.78;;;;;;;;;;2067529;28;20037;-76
2023/07/03 02:41:50;;;;;;;7.68;2.78;;;;;;;;;;2072421;28;20030;-76
2023/07/03 02:43:09;;;;;;;5.50;3.05;;;;;;;;;;2072096;28;20657;-76
2023/07/03 02:44:28;;;;;;;3.58;2.67;;;;;;;;;;2072170;28;20395;-76
2023/07/03 02:45:48;;;;;;;8.02;3.20;;;;;;;;;;2071714;28;20113;-75
2023/07/03 02:47:07;;;;;;;6.40;2.85;;;;;;;;;;2071302;28;20487;-75
2023/07/03 02:48:25;;;;;;;3.38;2.90;;;;;;;;;;2062996;28;20042;-76
2023/07/03 02:49:44;;;;;;;8.07;3.40;;;;;;;;;;2068739;28;20038;-77
2023/07/03 02:51:03;;;;;;;5.60;3.45;;;;;;;;;;2064578;28;20038;-75
2023/07/03 02:52:22;;;;;;;3.72;2.85;;;;;;;;;;2068304;28;20407;-77
2023/07/03 02:53:42;;;;;;;4.55;3.20;;;;;;;;;;2071674;28;21150;-76
2023/07/03 02:55:01;;;;;;;11.13;3.20;;;;;;;;;;2059811;28;20058;-75
2023/07/03 02:56:20;;;;;;;5.28;3.15;;;;;;;;;;2060856;28;20042;-75
2023/07/03 02:57:39;;;;;;;4.53;3.10;;;;;;;;;;2069269;28;20026;-75
2023/07/03 02:58:58;;;;;;;6.78;2.85;;;;;;;;;;2061353;28;20458;-77
2023/07/03 03:00:17;;;;;;;3.63;3.08;;;;;;;;;;2068241;28;20121;-75
2023/07/03 03:01:36;;;;;;;3.72;2.85;;;;;;;;;;2064291;28;20030;-76
2023/07/03 03:02:55;;;;;;;5.65;3.00;;;;;;;;;;2069156;28;20017;-76
2023/07/03 03:04:16;;;;;;;8.10;2.97;;;;;;;;;;2064702;28;20030;-76
2023/07/03 03:05:35;;;;;;;4.45;3.10;;;;;;;;;;2060861;28;20503;-76
2023/07/03 03:06:54;;;;;;;5.40;3.15;;;;;;;;;;2069086;28;20029;-75
2023/07/03 03:08:12;;;;;;;6.82;3.13;;;;;;;;;;2072416;28;20034;-76
2023/07/03 03:09:31;;;;;;;3.70;2.63;;;;;;;;;;2072996;28;20030;-75
2023/07/03 03:10:51;;;;;;;4.28;2.83;;;;;;;;;;2063780;28;20183;-76
2023/07/03 03:12:10;;;;;;;4.18;2.50;;;;;;;;;;2064824;28;20415;-75
2023/07/03 03:13:29;;;;;;;6.30;2.92;;;;;;;;;;2069447;28;20033;-76
2023/07/03 03:14:48;;;;;;;9.45;3.08;;;;;;;;;;2072497;28;20476;-75
2023/07/03 03:16:07;;;;;;;6.47;2.92;;;;;;;;;;2072431;28;20486;-76
2023/07/03 03:17:26;;;;;;;3.15;2.15;;;;;;;;;;2065335;28;20031;-76
2023/07/03 03:18:47;;;;;;;4.32;2.60;;;;;;;;;;2066746;28;20030;-76
2023/07/03 03:20:07;;;;;;;5.00;2.40;;;;;;;;;;2072088;28;20491;-76
2023/07/03 03:21:27;;;;;;;5.40;2.53;;;;;;;;;;2082850;28;20025;-77
2023/07/03 03:22:46;;;;;;;6.47;3.05;;;;;;;;;;2073518;28;20023;-78
2023/07/03 03:24:05;;;;;;;6.57;2.88;;;;;;;;;;2081383;28;20065;-77
2023/07/03 03:25:24;;;;;;;6.20;2.67;;;;;;;;;;2083391;28;20026;-77
2023/07/03 03:26:43;;;;;;;3.63;2.25;;;;;;;;;;2081291;28;20053;-76
2023/07/03 03:28:02;;;;;;;7.35;2.45;;;;;;;;;;2072497;28;20093;-76
2023/07/03 03:29:21;;;;;;;6.95;2.67;;;;;;;;;;2075914;28;20026;-76
2023/07/03 03:30:40;;;;;;;6.18;2.28;;;;;;;;;;2068553;28;20034;-76
2023/07/03 03:31:59;;;;;;;5.22;2.42;;;;;;;;;;2069616;28;20459;-75
2023/07/03 03:33:18;;;;;;;4.85;2.38;;;;;;;;;;2072854;28;20026;-75
2023/07/03 03:34:37;;;;;;;3.78;2.28;;;;;;;;;;2055649;28;20038;-75
2023/07/03 03:35:56;;;;;;;3.55;2.20;;;;;;;;;;2061772;28;20030;-75
2023/07/03 03:37:16;;;;;;;3.40;2.38;;;;;;;;;;2055436;28;20027;-76
2023/07/03 03:38:35;;;;;;;5.68;2.08;;;;;;;;;;2052113;28;20035;-75
2023/07/03 03:39:55;;;;;;;6.78;2.63;;;;;;;;;;2062271;28;20030;-76
2023/07/03 03:41:14;;;;;;;5.63;2.53;;;;;;;;;;2064758;28;20033;-75
2023/07/03 03:42:32;;;;;;;4.00;1.90;;;;;;;;;;2064184;28;20054;-76
2023/07/03 03:43:51;;;;;;;4.28;2.10;;;;;;;;;;2064375;28;20034;-76
2023/07/03 03:45:10;;;;;;;3.22;2.45;;;;;;;;;;2062933;28;20030;-77
2023/07/03 03:46:29;;;;;;;2.03;1.90;;;;;;;;;;2063718;28;20116;-75
2023/07/03 03:47:48;;;;;;;3.53;2.13;;;;;;;;;;2063741;28;20062;-76
2023/07/03 03:49:09;;;;;;;2.50;1.90;;;;;;;;;;2064518;28;20506;-76
2023/07/03 03:50:28;;;;;;;5.20;2.33;;;;;;;;;;2063427;28;20030;-76
2023/07/03 03:51:47;;;;;;;2.92;1.83;;;;;;;;;;2065276;28;20484;-76
2023/07/03 03:53:07;;;;;;;4.75;2.10;;;;;;;;;;2056103;28;20540;-76
2023/07/03 03:54:29;;;;;;;3.63;1.77;;;;;;;;;;2060805;28;20034;-76
2023/07/03 03:55:49;;;;;;;2.33;1.90;;;;;;;;;;2063900;28;20050;-75
2023/07/03 03:57:08;;;;;;;5.20;1.80;;;;;;;;;;2063905;28;20022;-76
2023/07/03 03:58:27;;;;;;;2.63;1.90;;;;;;;;;;2064052;28;20452;-76
2023/07/03 03:59:46;;;;;;;3.50;1.77;;;;;;;;;;2064762;28;20018;-76
2023/07/03 04:01:05;;;;;;;6.05;2.00;;;;;;;;;;2062936;28;20038;-75
2023/07/03 04:02:24;;;;;;;3.38;1.70;;;;;;;;;;2062648;28;20046;-77
2023/07/03 04:03:43;;;;;;;2.03;1.60;;;;;;;;;;2064345;28;20407;-76
2023/07/03 04:05:01;;;;;;;3.55;1.83;;;;;;;;;;2054823;28;20027;-76
2023/07/03 04:06:20;;;;;;;3.88;1.65;;;;;;;;;;2052666;28;20066;-77
2023/07/03 04:07:39;;;;;;;2.70;1.50;;;;;;;;;;2060545;28;20031;-76
2023/07/03 04:08:58;;;;;;;3.55;1.70;;;;;;;;;;2063731;28;20475;-76
2023/07/03 04:10:17;;;;;;;2.50;1.55;;;;;;;;;;2056067;28;20420;-77
2023/07/03 04:11:36;;;;;;;4.45;1.83;;;;;;;;;;2060707;28;20027;-76
2023/07/03 04:12:55;;;;;;;3.47;1.85;;;;;;;;;;2054145;28;20035;-75
2023/07/03 04:14:16;;;;;;;1.77;1.42;;;;;;;;;;2060912;28;20035;-76
2023/07/03 04:15:35;;;;;;;3.90;1.60;;;;;;;;;;2053014;28;20031;-76
2023/07/03 04:16:57;;;;;;;2.30;1.52;;;;;;;;;;2048462;28;20038;-77
2023/07/03 04:18:16;;;;;;;3.17;1.60;;;;;;;;;;2060843;28;20026;-76
2023/07/03 04:19:35;;;;;;;2.58;1.63;;;;;;;;;;2063547;28;20026;-76
2023/07/03 04:20:54;;;;;;;4.65;1.58;;;;;;;;;;2053472;28;20030;-76
2023/07/03 04:22:13;;;;;;;4.20;1.60;;;;;;;;;;2049610;28;20461;-76
2023/07/03 04:23:31;;;;;;;2.58;1.38;;;;;;;;;;2060257;28;20070;-76
2023/07/03 04:24:50;;;;;;;1.90;1.23;;;;;;;;;;2055205;28;20126;-76
2023/07/03 04:26:10;;;;;;;1.65;1.20;;;;;;;;;;2059806;28;20034;-76
2023/07/03 04:27:29;;;;;;;3.20;1.92;;;;;;;;;;2062929;28;20109;-76
2023/07/03 04:28:49;;;;;;;3.65;1.92;;;;;;;;;;2061358;28;20030;-77
2023/07/03 04:30:08;;;;;;;3.03;2.00;;;;;;;;;;2062708;28;20037;-76
2023/07/03 04:31:27;;;;;;;2.70;1.85;;;;;;;;;;2053487;28;20078;-76
2023/07/03 04:32:53;;;;;;;4.88;1.67;;;;;;;;;;2053800;28;20031;-76
2023/07/03 04:34:12;;;;;;;2.22;1.60;;;;;;;;;;2064735;28;20037;-76
2023/07/03 04:35:31;;;;;;;3.08;1.63;;;;;;;;;;2074284;28;20034;-76
2023/07/03 04:36:51;;;;;;;1.90;1.25;;;;;;;;;;2069674;28;20021;-75
2023/07/03 04:38:10;;;;;;;2.55;1.60;;;;;;;;;;2071532;28;20391;-77
2023/07/03 04:39:29;;;;;;;4.20;1.60;;;;;;;;;;2070905;28;20491;-76
2023/07/03 04:40:49;;;;;;;4.18;1.60;;;;;;;;;;2071646;28;20025;-75
2023/07/03 04:42:13;;;;;;;1.30;1.20;;;;;;;;;;2069885;28;20562;-76
2023/07/03 04:43:32;;;;;;;3.30;1.17;;;;;;;;;;2070272;28;20601;-75
2023/07/03 04:44:52;;;;;;;2.50;1.50;;;;;;;;;;2069439;28;20062;-76
2023/07/03 04:46:12;;;;;;;1.90;1.45;;;;;;;;;;2065609;28;20507;-76
2023/07/03 04:47:32;;;;;;;4.72;1.73;;;;;;;;;;2064835;28;20038;-79
2023/07/03 04:48:52;;;;;;;3.63;1.40;;;;;;;;;;2070791;28;20108;-78
2023/07/03 04:50:16;;;;;;;2.92;1.40;;;;;;;;;;2079062;28;20033;-75
2023/07/03 04:51:35;;;;;;;3.53;1.50;;;;;;;;;;2069853;28;20687;-75
2023/07/03 04:52:54;;;;;;;2.72;1.48;;;;;;;;;;2070464;28;20022;-76
2023/07/03 04:54:13;;;;;;;4.22;1.50;;;;;;;;;;2068970;28;20026;-74
2023/07/03 04:55:32;;;;;;;7.07;1.60;;;;;;;;;;2067231;28;20068;-76
2023/07/03 04:56:51;;;;;;;1.55;1.45;;;;;;;;;;2070601;28;20022;-75
2023/07/03 04:58:11;;;;;;;4.13;1.38;;;;;;;;;;2072112;28;20030;-76
2023/07/03 04:59:30;;;;;;;2.38;1.20;;;;;;;;;;2067416;28;20018;-76
2023/07/03 05:00:51;;;;;;;1.50;1.40;;;;;;;;;;2068290;28;20034;-76
2023/07/03 05:02:12;;;;;;;1.67;1.02;;;;;;;;;;2065272;28;20518;-76
2023/07/03 05:03:32;;;;;;;3.92;1.60;;;;;;;;;;2070231;28;20483;-76
2023/07/03 05:04:51;;;;;;;5.70;1.52;;;;;;;;;;2070424;28;20186;-75
2023/07/03 05:06:10;;;;;;;7.28;1.40;;;;;;;;;;2068535;28;20030;-76
2023/07/03 05:07:31;;;;;;;3.95;1.65;;;;;;;;;;2065804;28;20030;-77
2023/07/03 05:08:50;;;;;;;2.60;1.27;;;;;;;;;;2066272;28;20075;-78
2023/07/03 05:10:10;;;;;;;1.25;1.15;;;;;;;;;;2069389;28;20030;-76
2023/07/03 05:11:29;;;;;;;1.85;1.30;;;;;;;;;;2071237;28;20035;-74
2023/07/03 05:12:49;;;;;;;1.13;1.02;;;;;;;;;;2067980;28;20026;-77
2023/07/03 05:14:08;;;;;;;1.33;1.23;;;;;;;;;;2065622;28;20136;-76
2023/07/03 05:15:30;;;;;;;3.40;1.10;;;;;;;;;;2067607;28;20149;-75
2023/07/03 05:16:49;;;;;;;2.42;1.30;;;;;;;;;;2065493;28;20034;-74
2023/07/03 05:18:08;;;;;;;4.10;1.27;;;;;;;;;;2068454;28;20053;-76
2023/07/03 05:19:27;;;;;;;4.22;1.63;;;;;;;;;;2068701;28;20030;-77
2023/07/03 05:20:47;;;;;;;2.15;1.20;;;;;;;;;;2066716;28;20038;-75
2023/07/03 05:22:06;;;;;;;2.30;1.38;;;;;;;;;;2065338;28;20026;-77
2023/07/03 05:23:25;;;;;;;1.98;1.38;;;;;;;;;;2068117;28;20057;-78
2023/07/03 05:24:44;;;;;;;5.20;1.60;;;;;;;;;;2068097;28;20037;-78
2023/07/03 05:26:03;;;;;;;1.95;1.40;;;;;;;;;;2071668;28;20034;-76
2023/07/03 05:27:22;;;;;;;2.00;1.30;;;;;;;;;;2072295;28;20041;-75
2023/07/03 05:28:41;;;;;;;3.75;1.92;;;;;;;;;;2068423;28;20507;-75
2023/07/03 05:30:01;;;;;;;3.75;1.83;;;;;;;;;;2069183;28;20038;-76
2023/07/03 05:31:22;;;;;;;3.20;1.60;;;;;;;;;;2070253;28;20062;-76
2023/07/03 05:32:41;;;;;;;4.72;1.67;;;;;;;;;;2070094;28;20019;-77
2023/07/03 05:34:00;;;;;;;1.83;1.35;;;;;;;;;;2075971;28;20503;-76
2023/07/03 05:35:19;;;;;;;3.42;1.63;;;;;;;;;;2071980;28;20026;-75
2023/07/03 05:36:38;;;;;;;3.15;1.40;;;;;;;;;;2071828;28;20034;-76
2023/07/03 05:37:59;;;;;;;2.28;1.45;;;;;;;;;;2069554;28;20034;-77
2023/07/03 05:39:18;;;;;;;1.85;1.67;;;;;;;;;;2069346;28;20030;-75
2023/07/03 05:40:37;;;;;;;3.70;1.67;;;;;;;;;;2068127;28;20427;-74
2023/07/03 05:41:56;;;;;;;3.58;1.60;;;;;;;;;;2070197;28;20449;-74
2023/07/03 05:43:15;;;;;;;2.60;1.75;;;;;;;;;;2067895;28;20473;-74
2023/07/03 05:44:34;;;;;;;3.47;1.70;;;;;;;;;;2070061;28;20037;-77
2023/07/03 05:45:53;;;;;;;2.35;1.90;;;;;;;;;;2066590;28;20054;-75
2023/07/03 05:47:13;;;;;;;2.65;2.00;;;;;;;;;;2071609;28;20475;-75
2023/07/03 05:48:32;;;;;;;2.42;1.70;;;;;;;;;;2068653;28;20030;-75
2023/07/03 05:49:52;;;;;;;2.85;1.83;;;;;;;;;;2072013;28;20391;-75
2023/07/03 05:51:11;;;;;;;3.40;1.70;;;;;;;;;;2071978;28;20034;-75
2023/07/03 05:52:31;;;;;;;3.60;1.95;;;;;;;;;;2071201;28;20022;-76
2023/07/03 05:53:50;;;;;;;1.95;1.38;;;;;;;;;;2072312;28;20543;-76
2023/07/03 05:55:09;;;;;;;4.68;1.95;;;;;;;;;;2071434;28;20380;-75
2023/07/03 05:56:28;;;;;;;4.20;1.92;;;;;;;;;;2067764;28;20152;-77
2023/07/03 05:57:47;;;;;;;5.65;1.95;;;;;;;;;;2070989;28;20018;-76
2023/07/03 05:59:06;;;;;;;2.00;1.73;;;;;;;;;;2073875;28;20056;-77
2023/07/03 06:00:30;;;;;;;2.95;1.75;;;;;;;;;;2071296;28;20057;-76
2023/07/03 06:01:49;;;;;;;4.20;1.70;;;;;;;;;;2069911;28;20026;-76
2023/07/03 06:03:11;;;;;;;2.70;1.70;;;;;;;;;;2072777;28;20441;-79
2023/07/03 06:04:29;;;;;;;2.53;1.65;;;;;;;;;;2073253;28;20030;-76
2023/07/03 06:05:48;;;;;;;4.00;1.60;;;;;;;;;;2072341;28;20022;-76
2023/07/03 06:07:08;;;;;;;4.80;1.60;;;;;;;;;;2070448;28;20030;-76
2023/07/03 06:08:27;;;;;;;3.33;1.90;;;;;;;;;;2069810;28;20458;-76
2023/07/03 06:09:46;;;;;;;3.28;2.10;;;;;;;;;;2071561;28;20022;-75
2023/07/03 06:11:05;;;;;;;2.47;1.75;;;;;;;;;;2071728;28;20030;-77
2023/07/03 06:12:29;;;;;;;10.35;2.33;;;;;;;;;;2069991;28;20030;-78
2023/07/03 06:13:48;;;;;;;4.75;1.90;;;;;;;;;;2071875;28;20034;-77
2023/07/03 06:15:07;;;;;;;3.97;2.03;;;;;;;;;;2069707;28;20100;-77
2023/07/03 06:16:27;;;;;;;3.33;1.95;;;;;;;;;;2072526;28;20030;-75
2023/07/03 06:17:46;;;;;;;4.75;2.05;;;;;;;;;;2073562;28;20030;-77
2023/07/03 06:19:05;;;;;;;4.22;1.80;;;;;;;;;;2071608;28;20067;-77
2023/07/03 06:20:25;;;;;;;3.47;1.67;;;;;;;;;;2067499;28;20026;-76
2023/07/03 06:21:44;;;;;;;6.30;1.70;;;;;;;;;;2071901;28;20034;-77
2023/07/03 06:23:03;;;;;;;4.90;2.10;;;;;;;;;;2071971;28;20439;-77
2023/07/03 06:24:22;;;;;;;4.05;1.80;;;;;;;;;;2071056;28;20021;-77
2023/07/03 06:25:41;;;;;;;2.50;1.70;;;;;;;;;;2072745;28;20029;-76
2023/07/03 06:27:02;;;;;;;2.00;1.58;;;;;;;;;;2070849;28;20017;-77
2023/07/03 06:28:22;;;;;;;5.22;2.00;;;;;;;;;;2072612;28;20495;-76
2023/07/03 06:29:41;;;;;;;3.00;1.70;;;;;;;;;;2071089;28;20033;-77
2023/07/03 06:30:59;;;;;;;3.05;1.50;;;;;;;;;;2072536;28;20403;-77
2023/07/03 06:32:19;;;;;;;2.00;1.55;;;;;;;;;;2070823;28;20030;-77
2023/07/03 06:33:38;;;;;;;2.72;1.77;;;;;;;;;;2067775;28;20025;-77
2023/07/03 06:34:57;;;;;;;1.60;1.50;;;;;;;;;;2072771;28;20144;-77
2023/07/03 06:36:20;;;;;;;1.67;1.50;;;;;;;;;;2073786;28;20022;-77
2023/07/03 06:37:39;;;;;;;3.15;1.60;;;;;;;;;;2072313;28;20026;-77
2023/07/03 06:38:59;;;;;;;2.08;1.60;;;;;;;;;;2070105;28;20026;-77
2023/07/03 06:40:19;;;;;;;3.80;1.77;;;;;;;;;;2072112;28;20403;-77
2023/07/03 06:41:38;;;;;;;2.17;1.42;;;;;;;;;;2074074;28;20027;-76
2023/07/03 06:42:57;;;;;;;4.85;1.40;;;;;;;;;;2072647;28;20030;-76
2023/07/03 06:44:16;;;;;;;3.28;1.63;;;;;;;;;;2070078;28;20029;-77
2023/07/03 06:45:36;;;;;;;4.38;1.50;;;;;;;;;;2073196;28;20034;-77
2023/07/03 06:46:55;;;;;;;3.80;1.50;;;;;;;;;;2078836;28;20053;-77
2023/07/03 06:48:14;;;;;;;2.83;1.40;;;;;;;;;;2073803;28;20038;-77
2023/07/03 06:49:34;;;;;;;2.72;1.45;;;;;;;;;;2074386;28;20030;-77
2023/07/03 06:51:03;;;;;;;3.42;1.60;;;;;;;;;;2076525;28;20034;-77
2023/07/03 06:52:22;;;;;;;2.13;1.20;;;;;;;;;;2071825;28;20021;-76
2023/07/03 06:53:41;;;;;;;3.25;1.45;;;;;;;;;;2071164;28;20564;-77
2023/07/03 06:55:00;;;;;;;3.50;2.05;;;;;;;;;;2070684;28;20115;-77
2023/07/03 06:56:19;;;;;;;3.60;1.42;;;;;;;;;;2073318;28;20104;-77
2023/07/03 06:57:38;;;;;;;1.92;1.60;;;;;;;;;;2073202;28;20018;-78
2023/07/03 06:58:57;;;;;;;4.05;1.48;;;;;;;;;;2070814;28;20064;-77
2023/07/03 07:00:16;;;;;;;3.70;1.60;;;;;;;;;;2072301;28;20382;-77
2023/07/03 07:01:35;;;;;;;2.63;1.48;;;;;;;;;;2071351;28;20026;-76
2023/07/03 07:02:54;;;;;;;1.35;1.02;;;;;;;;;;2070658;28;20073;-77
2023/07/03 07:04:14;;;;;;;1.52;1.30;;;;;;;;;;2071988;28;20029;-76
2023/07/03 07:05:33;;;;;;;3.03;1.20;;;;;;;;;;2074204;28;20429;-76
2023/07/03 07:06:53;;;;;;;3.67;1.20;;;;;;;;;;2073702;28;20387;-77
2023/07/03 07:08:16;;;;;;;2.53;1.40;;;;;;;;;;2074505;28;20030;-78
2023/07/03 07:09:35;;;;;;;2.95;1.40;;;;;;;;;;2085936;28;20026;-77
2023/07/03 07:10:54;;;;;;;2.42;1.33;;;;;;;;;;2080052;28;20061;-77
2023/07/03 07:12:13;;;;;;;3.95;1.65;;;;;;;;;;2080756;28;20041;-77
2023/07/03 07:13:32;;;;;;;3.70;1.40;;;;;;;;;;2079454;28;20037;-78
2023/07/03 07:14:51;;;;;;;2.58;1.25;;;;;;;;;;2080354;28;20057;-78
2023/07/03 07:16:16;;;;;;;1.02;0.93;;;;;;;;;;2079211;28;20029;-79
2023/07/03 07:17:37;;;;;;;1.75;1.20;;;;;;;;;;2079931;28;20073;-78
2023/07/03 07:18:57;;;;;;;3.67;1.45;;;;;;;;;;2070597;28;20037;-78
2023/07/03 07:20:16;;;;;;;5.10;1.15;;;;;;;;;;2070393;28;20033;-78
2023/07/03 07:21:36;;;;;;;1.52;0.90;;;;;;;;;;2072353;28;20038;-78
2023/07/03 07:22:55;;;;;;;3.28;1.30;;;;;;;;;;2070696;28;20435;-80
2023/07/03 07:24:16;;;;;;;2.85;1.17;;;;;;;;;;2073774;28;20065;-79
2023/07/03 07:25:35;;;;;;;1.65;1.40;;;;;;;;;;2073663;28;20026;-78
2023/07/03 07:26:59;;;;;;;3.78;1.50;;;;;;;;;;2072438;28;20030;-78
2023/07/03 07:28:18;;;;;;;2.47;1.08;;;;;;;;;;2070916;28;20034;-79
2023/07/03 07:29:39;;;;;;;1.30;1.20;;;;;;;;;;2071598;28;20034;-77
2023/07/03 07:30:58;;;;;;;3.22;1.02;;;;;;;;;;2072533;28;20037;-78
2023/07/03 07:32:17;;;;;;;4.20;1.10;;;;;;;;;;2074821;28;20018;-79
2023/07/03 07:33:36;;;;;;;1.10;1.00;;;;;;;;;;2074475;28;20030;-78
2023/07/03 07:34:55;;;;;;;3.20;1.10;;;;;;;;;;2068295;28;20398;-78
2023/07/03 07:36:15;;;;;;;3.25;0.98;;;;;;;;;;2067709;28;20460;-78
2023/07/03 07:37:34;;;;;;;2.40;1.02;;;;;;;;;;2072016;28;20034;-78
2023/07/03 07:38:53;;;;;;;7.18;1.17;;;;;;;;;;2069827;28;20030;-78
2023/07/03 07:40:12;;;;;;;3.47;1.38;;;;;;;;;;2071700;28;20022;-77
2023/07/03 07:41:31;;;;;;;1.35;0.90;;;;;;;;;;2071415;28;20595;-77
2023/07/03 07:42:50;;;;;;;1.75;1.10;;;;;;;;;;2070984;28;20034;-79
2023/07/03 07:44:09;;;;;;;1.95;1.52;;;;;;;;;;2072208;28;20034;-80
2023/07/03 07:45:28;;;;;;;1.60;1.20;;;;;;;;;;2072153;28;20034;-80
2023/07/03 07:46:47;;;;;;;6.20;1.42;;;;;;;;;;2071163;28;20037;-80
2023/07/03 07:48:07;;;;;;;1.77;1.45;;;;;;;;;;2070901;28;20042;-77
2023/07/03 07:49:26;;;;;;;1.80;1.15;;;;;;;;;;2072680;28;20038;-78
2023/07/03 07:50:44;;;;;;;2.60;0.88;;;;;;;;;;2068059;28;20500;-80
2023/07/03 07:52:03;;;;;;;2.58;1.30;;;;;;;;;;2070680;28;20034;-77
2023/07/03 07:53:22;;;;;;;2.08;0.90;;;;;;;;;;2070096;28;20073;-77
2023/07/03 07:54:42;;;;;;;2.83;1.27;;;;;;;;;;2068844;28;20026;-78
2023/07/03 07:56:01;;;;;;;1.70;1.00;;;;;;;;;;2071185;28;20014;-77
2023/07/03 07:57:20;;;;;;;1.58;1.00;;;;;;;;;;2072081;28;20097;-77
2023/07/03 07:58:39;;;;;;;2.40;1.30;;;;;;;;;;2071399;28;20151;-78
2023/07/03 07:59:58;;;;;;;1.60;1.20;;;;;;;;;;2070671;28;20018;-77